sensor_id;sensor_type;location;lat;lon;timestamp;temperature;humidity
52397;DHT22;38322;53.108;6.308;2023-06-14T05:03:12;15.20;99.90
52397;DHT22;38322;53.108;6.308;2023-06-14T05:05:40;15.30;99.90
52397;DHT22;38322;53.108;6.308;2023-06-14T05:08:06;15.40;99.90
52397;DHT22;38322;53.108;6.308;2023-06-14T05:10:32;15.40;99.90
52397;DHT22;38322;53.108;6.308;2023-06-14T05:13:00;15.40;99.90
52397;DHT22;38322;53.108;6.308;2023-06-14T05:15:27;15.50;99.90
52397;DHT22;38322;53.108;6.308;2023-06-14T05:17:54;15.60;99.90
52397;DHT22;38322;53.108;6.308;2023-06-14T05:20:22;15.70;99.90
52397;DHT22;38322;53.108;6.308;2023-06-14T05:22:51;15.80;99.90
52397;DHT22;38322;53.108;6.308;2023-06-14T05:25:18;15.80;99.90
52397;DHT22;38322;53.108;6.308;2023-06-14T05:27:44;15.90;99.90
52397;DHT22;38322;53.108;6.308;2023-06-14T05:30:10;15.90;99.90
52397;DHT22;38322;53.108;6.308;2023-06-14T05:32:36;16.00;99.90
52397;DHT22;38322;53.108;6.308;2023-06-14T05:35:02;16.10;99.90
52397;DHT22;38322;53.108;6.308;2023-06-14T05:37:29;16.10;99.90
52397;DHT22;38322;53.108;6.308;2023-06-14T05:39:56;16.20;99.90
52397;DHT22;38322;53.108;6.308;2023-06-14T05:42:22;16.30;99.90
52397;DHT22;38322;53.108;6.308;2023-06-14T05:44:48;16.30;99.90
52397;DHT22;38322;53.108;6.308;2023-06-14T05:47:14;16.30;99.90
52397;DHT22;38322;53.108;6.308;2023-06-14T05:49:39;16.40;99.90
52397;DHT22;38322;53.108;6.308;2023-06-14T05:52:06;16.40;99.90
52397;DHT22;38322;53.108;6.308;2023-06-14T05:54:32;16.50;99.90
52397;DHT22;38322;53.108;6.308;2023-06-14T05:56:57;16.60;99.90
52397;DHT22;38322;53.108;6.308;2023-06-14T05:59:27;16.70;99.90
52397;DHT22;38322;53.108;6.308;2023-06-14T06:01:53;16.80;99.90
52397;DHT22;38322;53.108;6.308;2023-06-14T06:04:19;16.90;99.90
52397;DHT22;38322;53.108;6.308;2023-06-14T06:06:45;17.00;99.90
52397;DHT22;38322;53.108;6.308;2023-06-14T06:09:12;17.10;99.90
52397;DHT22;38322;53.108;6.308;2023-06-14T06:11:40;17.10;99.90
52397;DHT22;38322;53.108;6.308;2023-06-14T06:14:06;17.10;99.90
52397;DHT22;38322;53.108;6.308;2023-06-14T06:16:32;17.20;99.90
52397;DHT22;38322;53.108;6.308;2023-06-14T06:18:58;17.30;99.90
52397;DHT22;38322;53.108;6.308;2023-06-14T06:21:25;17.40;99.90
52397;DHT22;38322;53.108;6.308;2023-06-14T06:23:50;17.50;99.90
52397;DHT22;38322;53.108;6.308;2023-06-14T06:26:16;17.50;99.90
52397;DHT22;38322;53.108;6.308;2023-06-14T06:28:42;17.60;99.90
52397;DHT22;38322;53.108;6.308;2023-06-14T06:31:08;17.70;99.90
52397;DHT22;38322;53.108;6.308;2023-06-14T06:33:34;17.70;99.90
52397;DHT22;38322;53.108;6.308;2023-06-14T06:36:00;17.90;99.90
52397;DHT22;38322;53.108;6.308;2023-06-14T06:38:26;17.90;99.90
52397;DHT22;38322;53.108;6.308;2023-06-14T06:40:52;18.00;99.80
52397;DHT22;38322;53.108;6.308;2023-06-14T06:43:19;18.10;99.90
52397;DHT22;38322;53.108;6.308;2023-06-14T06:45:45;18.20;99.20
52397;DHT22;38322;53.108;6.308;2023-06-14T06:48:11;18.30;99.50
52397;DHT22;38322;53.108;6.308;2023-06-14T06:50:37;18.40;99.10
52397;DHT22;38322;53.108;6.308;2023-06-14T06:53:04;18.50;98.60
52397;DHT22;38322;53.108;6.308;2023-06-14T06:55:30;18.50;98.00
52397;DHT22;38322;53.108;6.308;2023-06-14T06:57:56;18.60;98.10
52397;DHT22;38322;53.108;6.308;2023-06-14T07:00:22;18.70;98.30
52397;DHT22;38322;53.108;6.308;2023-06-14T07:02:48;18.80;98.00
52397;DHT22;38322;53.108;6.308;2023-06-14T07:05:14;19.00;98.10
52397;DHT22;38322;53.108;6.308;2023-06-14T07:07:40;19.00;97.70
52397;DHT22;38322;53.108;6.308;2023-06-14T07:10:06;19.00;96.90
52397;DHT22;38322;53.108;6.308;2023-06-14T07:12:33;19.10;97.00
52397;DHT22;38322;53.108;6.308;2023-06-14T07:15:01;19.10;96.90
52397;DHT22;38322;53.108;6.308;2023-06-14T07:17:27;19.20;96.50
52397;DHT22;38322;53.108;6.308;2023-06-14T07:19:53;19.30;96.60
52397;DHT22;38322;53.108;6.308;2023-06-14T07:22:19;19.30;96.50
52397;DHT22;38322;53.108;6.308;2023-06-14T07:24:45;19.40;96.50
52397;DHT22;38322;53.108;6.308;2023-06-14T07:27:11;19.40;96.30
52397;DHT22;38322;53.108;6.308;2023-06-14T07:29:38;19.40;96.00
52397;DHT22;38322;53.108;6.308;2023-06-14T07:32:05;19.50;96.00
52397;DHT22;38322;53.108;6.308;2023-06-14T07:34:31;19.50;95.80
52397;DHT22;38322;53.108;6.308;2023-06-14T07:36:57;19.60;96.00
52397;DHT22;38322;53.108;6.308;2023-06-14T07:39:22;19.70;96.10
52397;DHT22;38322;53.108;6.308;2023-06-14T07:41:49;19.80;95.90
52397;DHT22;38322;53.108;6.308;2023-06-14T07:44:15;19.80;95.20
52397;DHT22;38322;53.108;6.308;2023-06-14T07:46:41;19.90;95.30
52397;DHT22;38322;53.108;6.308;2023-06-14T07:49:07;19.90;95.00
52397;DHT22;38322;53.108;6.308;2023-06-14T07:51:33;20.10;94.70
52397;DHT22;38322;53.108;6.308;2023-06-14T07:54:00;20.00;94.30
52397;DHT22;38322;53.108;6.308;2023-06-14T07:56:27;20.20;94.70
52397;DHT22;38322;53.108;6.308;2023-06-14T07:58:53;20.30;94.70
52397;DHT22;38322;53.108;6.308;2023-06-14T08:01:19;20.30;93.70
52397;DHT22;38322;53.108;6.308;2023-06-14T08:03:45;20.30;93.90
52397;DHT22;38322;53.108;6.308;2023-06-14T08:06:11;20.30;93.90
52397;DHT22;38322;53.108;6.308;2023-06-14T08:08:37;20.30;93.80
52397;DHT22;38322;53.108;6.308;2023-06-14T08:11:03;20.30;93.60
52397;DHT22;38322;53.108;6.308;2023-06-14T08:13:29;20.50;94.20
52397;DHT22;38322;53.108;6.308;2023-06-14T08:15:55;20.50;93.60
52397;DHT22;38322;53.108;6.308;2023-06-14T08:18:22;20.50;93.30
52397;DHT22;38322;53.108;6.308;2023-06-14T08:20:48;20.60;93.30
52397;DHT22;38322;53.108;6.308;2023-06-14T08:23:15;20.60;93.30
52397;DHT22;38322;53.108;6.308;2023-06-14T08:25:44;20.70;93.60
52397;DHT22;38322;53.108;6.308;2023-06-14T08:28:10;20.80;93.50
52397;DHT22;38322;53.108;6.308;2023-06-14T08:30:36;20.80;92.20
52397;DHT22;38322;53.108;6.308;2023-06-14T08:33:02;20.80;92.40
52397;DHT22;38322;53.108;6.308;2023-06-14T08:35:28;20.90;92.50
52397;DHT22;38322;53.108;6.308;2023-06-14T08:37:54;20.90;92.50
52397;DHT22;38322;53.108;6.308;2023-06-14T08:40:23;20.80;92.80
52397;DHT22;38322;53.108;6.308;2023-06-14T08:42:51;20.80;92.80
52397;DHT22;38322;53.108;6.308;2023-06-14T08:45:20;21.00;92.90
52397;DHT22;38322;53.108;6.308;2023-06-14T08:47:47;21.00;92.50
52397;DHT22;38322;53.108;6.308;2023-06-14T08:50:21;21.00;92.00
52397;DHT22;38322;53.108;6.308;2023-06-14T08:52:48;21.00;91.80
52397;DHT22;38322;53.108;6.308;2023-06-14T08:55:18;20.90;91.60
52397;DHT22;38322;53.108;6.308;2023-06-14T08:57:46;21.00;92.00
52397;DHT22;38322;53.108;6.308;2023-06-14T09:00:15;21.00;91.40
52397;DHT22;38322;53.108;6.308;2023-06-14T09:02:41;21.00;91.50
52397;DHT22;38322;53.108;6.308;2023-06-14T09:05:10;21.10;90.80
52397;DHT22;38322;53.108;6.308;2023-06-14T09:07:40;21.10;91.10
52397;DHT22;38322;53.108;6.308;2023-06-14T09:10:09;21.20;91.30
52397;DHT22;38322;53.108;6.308;2023-06-14T09:12:36;21.30;91.10
52397;DHT22;38322;53.108;6.308;2023-06-14T09:15:03;21.40;90.40
52397;DHT22;38322;53.108;6.308;2023-06-14T09:17:33;21.50;91.00
52397;DHT22;38322;53.108;6.308;2023-06-14T09:20:00;21.60;91.10
52397;DHT22;38322;53.108;6.308;2023-06-14T09:22:29;21.60;90.70
52397;DHT22;38322;53.108;6.308;2023-06-14T09:24:56;21.50;91.00
52397;DHT22;38322;53.108;6.308;2023-06-14T09:27:22;21.60;91.20
52397;DHT22;38322;53.108;6.308;2023-06-14T09:29:47;21.70;91.30
52397;DHT22;38322;53.108;6.308;2023-06-14T09:32:14;21.70;90.80
52397;DHT22;38322;53.108;6.308;2023-06-14T09:34:40;21.70;90.70
52397;DHT22;38322;53.108;6.308;2023-06-14T09:37:06;21.60;90.20
52397;DHT22;38322;53.108;6.308;2023-06-14T09:39:32;21.60;90.10
52397;DHT22;38322;53.108;6.308;2023-06-14T09:41:57;21.60;90.60
52397;DHT22;38322;53.108;6.308;2023-06-14T09:44:25;21.60;90.70
52397;DHT22;38322;53.108;6.308;2023-06-14T09:46:56;21.70;90.40
52397;DHT22;38322;53.108;6.308;2023-06-14T09:49:22;21.80;91.30
52397;DHT22;38322;53.108;6.308;2023-06-14T09:51:51;21.80;90.20
52397;DHT22;38322;53.108;6.308;2023-06-14T09:54:22;21.90;90.50
52397;DHT22;38322;53.108;6.308;2023-06-14T09:56:51;22.00;90.00
52397;DHT22;38322;53.108;6.308;2023-06-14T09:59:21;21.90;90.20
52397;DHT22;38322;53.108;6.308;2023-06-14T10:01:56;21.90;90.30
52397;DHT22;38322;53.108;6.308;2023-06-14T10:04:24;21.90;89.30
52397;DHT22;38322;53.108;6.308;2023-06-14T10:06:51;21.90;88.60
52397;DHT22;38322;53.108;6.308;2023-06-14T10:09:17;22.00;90.10
52397;DHT22;38322;53.108;6.308;2023-06-14T10:11:44;22.10;89.30
52397;DHT22;38322;53.108;6.308;2023-06-14T10:14:12;22.10;90.30
52397;DHT22;38322;53.108;6.308;2023-06-14T10:16:52;22.20;89.20
52397;DHT22;38322;53.108;6.308;2023-06-14T10:19:34;22.20;88.70
52397;DHT22;38322;53.108;6.308;2023-06-14T10:22:02;22.20;89.20
52397;DHT22;38322;53.108;6.308;2023-06-14T10:24:35;22.30;89.50
52397;DHT22;38322;53.108;6.308;2023-06-14T10:27:06;22.40;89.80
52397;DHT22;38322;53.108;6.308;2023-06-14T10:32:23;22.20;88.30
52397;DHT22;38322;53.108;6.308;2023-06-14T10:34:58;22.30;89.80
52397;DHT22;38322;53.108;6.308;2023-06-14T10:37:24;22.50;89.90
52397;DHT22;38322;53.108;6.308;2023-06-14T10:39:50;22.70;89.20
52397;DHT22;38322;53.108;6.308;2023-06-14T10:42:17;22.60;89.00
52397;DHT22;38322;53.108;6.308;2023-06-14T10:44:50;22.70;88.60
52397;DHT22;38322;53.108;6.308;2023-06-14T10:47:26;22.90;88.40
52397;DHT22;38322;53.108;6.308;2023-06-14T10:49:54;22.80;88.10
52397;DHT22;38322;53.108;6.308;2023-06-14T10:52:22;22.80;86.80
52397;DHT22;38322;53.108;6.308;2023-06-14T10:54:58;22.70;88.00
52397;DHT22;38322;53.108;6.308;2023-06-14T10:57:24;23.00;90.20
52397;DHT22;38322;53.108;6.308;2023-06-14T10:59:50;22.90;87.00
52397;DHT22;38322;53.108;6.308;2023-06-14T11:04:52;22.90;87.20
52397;DHT22;38322;53.108;6.308;2023-06-14T11:10:04;22.90;86.90
52397;DHT22;38322;53.108;6.308;2023-06-14T11:12:33;22.90;87.10
52397;DHT22;38322;53.108;6.308;2023-06-14T11:15:01;23.00;86.70
52397;DHT22;38322;53.108;6.308;2023-06-14T11:17:27;23.10;86.40
52397;DHT22;38322;53.108;6.308;2023-06-14T11:20:08;22.90;84.70
52397;DHT22;38322;53.108;6.308;2023-06-14T11:22:40;23.00;84.40
52397;DHT22;38322;53.108;6.308;2023-06-14T11:25:09;23.10;84.30
52397;DHT22;38322;53.108;6.308;2023-06-14T11:27:35;23.10;85.70
52397;DHT22;38322;53.108;6.308;2023-06-14T11:30:01;23.10;84.90
52397;DHT22;38322;53.108;6.308;2023-06-14T11:32:27;23.20;85.50
52397;DHT22;38322;53.108;6.308;2023-06-14T11:34:53;23.20;85.80
52397;DHT22;38322;53.108;6.308;2023-06-14T11:37:19;23.40;86.40
52397;DHT22;38322;53.108;6.308;2023-06-14T11:39:45;23.30;85.30
52397;DHT22;38322;53.108;6.308;2023-06-14T11:42:17;23.20;85.20
52397;DHT22;38322;53.108;6.308;2023-06-14T11:44:46;23.20;84.00
52397;DHT22;38322;53.108;6.308;2023-06-14T11:47:12;23.20;86.50
52397;DHT22;38322;53.108;6.308;2023-06-14T11:49:38;23.30;85.00
52397;DHT22;38322;53.108;6.308;2023-06-14T11:52:04;23.40;85.30
52397;DHT22;38322;53.108;6.308;2023-06-14T11:54:32;23.50;84.90
52397;DHT22;38322;53.108;6.308;2023-06-14T11:56:58;23.20;83.00
52397;DHT22;38322;53.108;6.308;2023-06-14T11:59:25;23.20;82.80
52397;DHT22;38322;53.108;6.308;2023-06-14T12:01:53;23.50;84.50
52397;DHT22;38322;53.108;6.308;2023-06-14T12:04:27;23.50;83.50
52397;DHT22;38322;53.108;6.308;2023-06-14T12:06:53;23.50;83.50
52397;DHT22;38322;53.108;6.308;2023-06-14T12:09:21;23.50;83.10
52397;DHT22;38322;53.108;6.308;2023-06-14T12:11:49;23.60;82.00
52397;DHT22;38322;53.108;6.308;2023-06-14T12:14:15;23.70;82.50
52397;DHT22;38322;53.108;6.308;2023-06-14T12:16:43;23.50;81.70
52397;DHT22;38322;53.108;6.308;2023-06-14T12:19:13;23.60;82.60
52397;DHT22;38322;53.108;6.308;2023-06-14T12:21:40;23.70;81.60
52397;DHT22;38322;53.108;6.308;2023-06-14T12:24:07;23.70;82.20
52397;DHT22;38322;53.108;6.308;2023-06-14T12:26:33;23.60;81.40
52397;DHT22;38322;53.108;6.308;2023-06-14T12:28:59;23.70;81.80
52397;DHT22;38322;53.108;6.308;2023-06-14T12:31:25;23.90;82.10
52397;DHT22;38322;53.108;6.308;2023-06-14T12:33:52;23.90;81.40
52397;DHT22;38322;53.108;6.308;2023-06-14T12:36:18;23.60;81.00
52397;DHT22;38322;53.108;6.308;2023-06-14T12:38:45;23.80;82.90
52397;DHT22;38322;53.108;6.308;2023-06-14T12:41:11;24.00;81.90
52397;DHT22;38322;53.108;6.308;2023-06-14T12:43:39;24.10;81.10
52397;DHT22;38322;53.108;6.308;2023-06-14T12:46:05;24.00;80.20
52397;DHT22;38322;53.108;6.308;2023-06-14T12:48:30;24.10;81.20
52397;DHT22;38322;53.108;6.308;2023-06-14T12:50:57;24.40;81.30
52397;DHT22;38322;53.108;6.308;2023-06-14T12:53:23;24.60;80.80
52397;DHT22;38322;53.108;6.308;2023-06-14T12:55:49;24.70;81.00
52397;DHT22;38322;53.108;6.308;2023-06-14T12:58:16;24.40;80.60
52397;DHT22;38322;53.108;6.308;2023-06-14T13:03:11;24.90;80.10
52397;DHT22;38322;53.108;6.308;2023-06-14T13:05:36;25.10;81.10
52397;DHT22;38322;53.108;6.308;2023-06-14T13:08:07;25.10;80.10
52397;DHT22;38322;53.108;6.308;2023-06-14T15:17:24;25.00;75.00
52397;DHT22;38322;53.108;6.308;2023-06-14T15:19:50;24.90;76.50
52397;DHT22;38322;53.108;6.308;2023-06-14T15:22:16;25.30;76.40
52397;DHT22;38322;53.108;6.308;2023-06-14T15:24:42;25.40;75.40
52397;DHT22;38322;53.108;6.308;2023-06-14T15:27:08;25.30;75.20
52397;DHT22;38322;53.108;6.308;2023-06-14T15:29:34;24.90;74.40
52397;DHT22;38322;53.108;6.308;2023-06-14T15:32:01;24.70;75.20
52397;DHT22;38322;53.108;6.308;2023-06-14T15:34:27;25.00;75.30
52397;DHT22;38322;53.108;6.308;2023-06-14T15:36:53;25.20;73.90
52397;DHT22;38322;53.108;6.308;2023-06-14T15:39:18;25.50;73.80
52397;DHT22;38322;53.108;6.308;2023-06-14T15:41:45;25.90;73.80
52397;DHT22;38322;53.108;6.308;2023-06-14T15:44:10;26.20;75.10
52397;DHT22;38322;53.108;6.308;2023-06-14T15:46:36;26.40;75.60
52397;DHT22;38322;53.108;6.308;2023-06-14T15:49:09;26.50;74.90
52397;DHT22;38322;53.108;6.308;2023-06-14T15:51:36;26.70;74.50
52397;DHT22;38322;53.108;6.308;2023-06-14T15:54:02;26.70;74.20
52397;DHT22;38322;53.108;6.308;2023-06-14T15:56:28;26.70;73.30
52397;DHT22;38322;53.108;6.308;2023-06-14T15:58:54;26.60;74.20
52397;DHT22;38322;53.108;6.308;2023-06-14T16:01:21;26.40;74.30
52397;DHT22;38322;53.108;6.308;2023-06-14T16:03:47;26.10;74.20
52397;DHT22;38322;53.108;6.308;2023-06-14T16:06:13;26.30;74.80
52397;DHT22;38322;53.108;6.308;2023-06-14T16:08:39;26.50;73.90
52397;DHT22;38322;53.108;6.308;2023-06-14T16:11:05;26.80;73.20
52397;DHT22;38322;53.108;6.308;2023-06-14T16:13:30;26.70;73.00
52397;DHT22;38322;53.108;6.308;2023-06-14T16:15:56;26.50;71.90
52397;DHT22;38322;53.108;6.308;2023-06-14T16:18:22;26.70;73.30
52397;DHT22;38322;53.108;6.308;2023-06-14T16:20:48;27.00;72.20
52397;DHT22;38322;53.108;6.308;2023-06-14T16:23:14;27.20;71.00
52397;DHT22;38322;53.108;6.308;2023-06-14T16:25:40;27.20;70.90
52397;DHT22;38322;53.108;6.308;2023-06-14T16:28:06;27.30;71.50
52397;DHT22;38322;53.108;6.308;2023-06-14T16:30:31;27.50;71.60
52397;DHT22;38322;53.108;6.308;2023-06-14T16:32:57;27.40;71.00
52397;DHT22;38322;53.108;6.308;2023-06-14T16:35:23;27.50;70.30
52397;DHT22;38322;53.108;6.308;2023-06-14T16:37:49;27.70;70.80
52397;DHT22;38322;53.108;6.308;2023-06-14T16:40:15;27.60;70.90
52397;DHT22;38322;53.108;6.308;2023-06-14T16:42:40;27.60;70.50
52397;DHT22;38322;53.108;6.308;2023-06-14T16:45:07;27.40;70.50
52397;DHT22;38322;53.108;6.308;2023-06-14T16:47:32;27.20;75.50
52397;DHT22;38322;53.108;6.308;2023-06-14T16:49:58;26.70;81.40
52397;DHT22;38322;53.108;6.308;2023-06-14T16:52:24;26.40;84.20
52397;DHT22;38322;53.108;6.308;2023-06-14T16:54:50;26.50;84.40
52397;DHT22;38322;53.108;6.308;2023-06-14T16:57:16;26.10;84.30
52397;DHT22;38322;53.108;6.308;2023-06-14T16:59:42;26.00;84.20
52397;DHT22;38322;53.108;6.308;2023-06-14T17:02:08;26.10;85.10
52397;DHT22;38322;53.108;6.308;2023-06-14T17:04:33;26.00;85.20
52397;DHT22;38322;53.108;6.308;2023-06-14T17:06:59;26.10;85.70
52397;DHT22;38322;53.108;6.308;2023-06-14T17:09:26;25.90;85.90
52397;DHT22;38322;53.108;6.308;2023-06-14T17:11:52;25.80;86.80
52397;DHT22;38322;53.108;6.308;2023-06-14T17:14:18;25.90;87.00
52397;DHT22;38322;53.108;6.308;2023-06-14T17:16:44;25.80;86.50
52397;DHT22;38322;53.108;6.308;2023-06-14T17:19:10;25.80;86.20
52397;DHT22;38322;53.108;6.308;2023-06-14T17:21:36;25.70;86.60
52397;DHT22;38322;53.108;6.308;2023-06-14T17:24:02;25.60;86.40
52397;DHT22;38322;53.108;6.308;2023-06-14T17:26:28;25.40;86.30
52397;DHT22;38322;53.108;6.308;2023-06-14T17:28:54;25.40;86.70
52397;DHT22;38322;53.108;6.308;2023-06-14T17:31:21;25.40;87.40
52397;DHT22;38322;53.108;6.308;2023-06-14T17:33:46;25.40;87.80
52397;DHT22;38322;53.108;6.308;2023-06-14T17:36:12;25.40;87.60
52397;DHT22;38322;53.108;6.308;2023-06-14T17:38:38;25.50;87.50
52397;DHT22;38322;53.108;6.308;2023-06-14T17:41:04;25.40;87.10
52397;DHT22;38322;53.108;6.308;2023-06-14T17:43:36;25.30;88.00
52397;DHT22;38322;53.108;6.308;2023-06-14T17:46:02;25.00;88.20
52397;DHT22;38322;53.108;6.308;2023-06-14T17:48:28;24.80;88.60
52397;DHT22;38322;53.108;6.308;2023-06-14T17:51:00;24.70;88.90
52397;DHT22;38322;53.108;6.308;2023-06-14T17:53:26;24.90;89.00
52397;DHT22;38322;53.108;6.308;2023-06-14T17:55:52;24.90;89.40
52397;DHT22;38322;53.108;6.308;2023-06-14T17:58:19;25.00;89.50
52397;DHT22;38322;53.108;6.308;2023-06-14T18:00:46;24.80;89.20
52397;DHT22;38322;53.108;6.308;2023-06-14T18:03:12;24.30;90.00
52397;DHT22;38322;53.108;6.308;2023-06-14T18:05:37;23.80;90.50
52397;DHT22;38322;53.108;6.308;2023-06-14T18:08:05;23.40;91.00
52397;DHT22;38322;53.108;6.308;2023-06-14T18:10:31;23.00;91.40
52397;DHT22;38322;53.108;6.308;2023-06-14T18:12:57;22.80;92.10
52397;DHT22;38322;53.108;6.308;2023-06-14T18:15:23;22.60;92.30
52397;DHT22;38322;53.108;6.308;2023-06-14T18:17:49;22.40;92.70
52397;DHT22;38322;53.108;6.308;2023-06-14T18:20:16;22.30;92.90
52397;DHT22;38322;53.108;6.308;2023-06-14T18:22:42;22.10;93.00
52397;DHT22;38322;53.108;6.308;2023-06-14T18:25:08;22.00;93.20
52397;DHT22;38322;53.108;6.308;2023-06-14T18:27:34;21.90;93.50
52397;DHT22;38322;53.108;6.308;2023-06-14T18:30:00;21.80;93.60
52397;DHT22;38322;53.108;6.308;2023-06-14T18:32:26;21.70;93.70
52397;DHT22;38322;53.108;6.308;2023-06-14T18:34:55;21.60;93.90
52397;DHT22;38322;53.108;6.308;2023-06-14T18:37:21;21.60;94.10
52397;DHT22;38322;53.108;6.308;2023-06-14T18:39:47;21.50;94.50
52397;DHT22;38322;53.108;6.308;2023-06-14T18:42:13;21.40;94.70
52397;DHT22;38322;53.108;6.308;2023-06-14T18:44:39;21.30;94.70
52397;DHT22;38322;53.108;6.308;2023-06-14T18:47:05;21.30;94.70
52397;DHT22;38322;53.108;6.308;2023-06-14T18:49:31;21.20;94.70
52397;DHT22;38322;53.108;6.308;2023-06-14T18:51:57;21.10;94.90
52397;DHT22;38322;53.108;6.308;2023-06-14T18:54:23;21.10;95.00
52397;DHT22;38322;53.108;6.308;2023-06-14T18:56:49;21.00;95.40
52397;DHT22;38322;53.108;6.308;2023-06-14T18:59:15;20.90;95.40
52397;DHT22;38322;53.108;6.308;2023-06-14T19:01:41;20.90;95.30
52397;DHT22;38322;53.108;6.308;2023-06-14T19:04:07;20.80;95.50
52397;DHT22;38322;53.108;6.308;2023-06-14T19:06:33;20.80;95.50
52397;DHT22;38322;53.108;6.308;2023-06-14T19:08:59;20.70;95.50
52397;DHT22;38322;53.108;6.308;2023-06-14T19:11:25;20.60;95.60
52397;DHT22;38322;53.108;6.308;2023-06-14T19:13:51;20.60;95.40
52397;DHT22;38322;53.108;6.308;2023-06-14T19:16:17;20.60;95.40
52397;DHT22;38322;53.108;6.308;2023-06-14T19:18:42;20.50;95.50
52397;DHT22;38322;53.108;6.308;2023-06-14T19:21:08;20.50;95.60
52397;DHT22;38322;53.108;6.308;2023-06-14T19:23:35;20.50;95.60
52397;DHT22;38322;53.108;6.308;2023-06-14T19:26:02;20.40;95.60
52397;DHT22;38322;53.108;6.308;2023-06-14T19:28:28;20.30;95.70
52397;DHT22;38322;53.108;6.308;2023-06-14T19:30:54;20.30;95.90
52397;DHT22;38322;53.108;6.308;2023-06-14T19:33:20;20.20;96.00
52397;DHT22;38322;53.108;6.308;2023-06-14T19:35:46;20.20;96.20
52397;DHT22;38322;53.108;6.308;2023-06-14T19:38:12;20.10;96.20
52397;DHT22;38322;53.108;6.308;2023-06-14T19:40:39;20.10;96.30
52397;DHT22;38322;53.108;6.308;2023-06-14T19:43:05;20.00;96.50
52397;DHT22;38322;53.108;6.308;2023-06-14T19:45:31;19.90;96.60
52397;DHT22;38322;53.108;6.308;2023-06-14T19:47:57;19.90;96.90
52397;DHT22;38322;53.108;6.308;2023-06-14T19:50:23;19.80;97.00
52397;DHT22;38322;53.108;6.308;2023-06-14T19:52:49;19.70;97.20
52397;DHT22;38322;53.108;6.308;2023-06-14T19:55:15;19.60;97.60
52397;DHT22;38322;53.108;6.308;2023-06-14T19:57:40;19.50;97.90
52397;DHT22;38322;53.108;6.308;2023-06-14T20:00:07;19.50;98.00
